Time;durP1;ratioP1;P1;durP2;ratioP2;P2;SDS_P1;SDS_P2;PMS_P1;PMS_P2;Temp;Humidity;BMP_temperature;BMP_pressure;BME280_temperature;BME280_humidity;BME280_pressure;Samples;Min_cycle;Max_cycle;Signal;HPM_P1;HPM_P2
2022/03/07 00:01:42;;;;;;;12.83;8.13;;;1.20;98.80;;;;;;5041562;28;20512;-87
2022/03/07 00:04:07;;;;;;;12.33;8.43;;;1.30;98.70;;;;;;5041447;28;20181;-87
2022/03/07 00:06:33;;;;;;;10.47;7.57;;;1.30;98.70;;;;;;5042394;28;20415;-85
2022/03/07 00:08:59;;;;;;;12.80;7.73;;;1.30;98.60;;;;;;5059849;28;20169;-86
2022/03/07 00:11:24;;;;;;;12.93;8.10;;;1.30;98.80;;;;;;5060023;28;20686;-85
2022/03/07 00:13:51;;;;;;;13.67;8.20;;;1.30;98.90;;;;;;5042069;28;20205;-84
2022/03/07 00:16:17;;;;;;;11.52;7.78;;;1.30;98.80;;;;;;5042370;28;20209;-85
2022/03/07 00:18:42;;;;;;;11.03;7.80;;;1.20;99.20;;;;;;5043284;28;20165;-86
2022/03/07 00:21:10;;;;;;;13.80;7.90;;;1.20;99.10;;;;;;5043145;28;20424;-84
2022/03/07 00:23:36;;;;;;;18.30;9.00;;;1.30;99.00;;;;;;5043265;28;20161;-85
2022/03/07 00:26:02;;;;;;;12.90;8.10;;;1.20;99.00;;;;;;5043076;28;20199;-85
2022/03/07 00:28:27;;;;;;;13.73;8.57;;;1.30;98.50;;;;;;5060654;28;20597;-84
2022/03/07 00:30:53;;;;;;;13.77;7.80;;;1.30;98.30;;;;;;5060424;28;20201;-85
2022/03/07 00:33:18;;;;;;;10.70;7.70;;;1.30;98.40;;;;;;5041344;28;20204;-85
2022/03/07 00:35:44;;;;;;;11.80;8.17;;;1.20;98.20;;;;;;5040294;28;20193;-83
2022/03/07 00:38:10;;;;;;;12.40;9.02;;;1.20;98.30;;;;;;5041102;28;20177;-84
2022/03/07 00:40:36;;;;;;;10.55;7.38;;;1.10;97.60;;;;;;5057956;28;20169;-84
2022/03/07 00:43:06;;;;;;;12.57;7.57;;;1.10;97.90;;;;;;5058046;28;20184;-87
2022/03/07 00:45:31;;;;;;;10.15;8.07;;;1.10;98.20;;;;;;5051512;28;20633;-88
2022/03/07 00:47:57;;;;;;;10.87;8.10;;;1.10;98.10;;;;;;5036787;28;20191;-86
2022/03/07 00:50:23;;;;;;;13.80;8.10;;;1.10;98.30;;;;;;5051182;28;20180;-85
2022/03/07 00:52:48;;;;;;;11.50;8.10;;;1.00;98.40;;;;;;5036527;28;20304;-87
2022/03/07 00:55:14;;;;;;;13.43;7.57;;;1.00;98.40;;;;;;5050541;28;20202;-86
2022/03/07 00:57:39;;;;;;;9.47;7.53;;;1.00;98.50;;;;;;5038207;28;20264;-85
2022/03/07 01:00:06;;;;;;;11.00;7.80;;;0.90;98.40;;;;;;5048952;28;20181;-84
2022/03/07 01:02:32;;;;;;;12.43;7.00;;;1.00;98.40;;;;;;5051458;28;20189;-87
2022/03/07 01:04:57;;;;;;;10.50;6.90;;;0.90;98.20;;;;;;5035227;28;20320;-87
2022/03/07 01:07:23;;;;;;;16.53;9.27;;;0.80;98.10;;;;;;5032492;28;20209;-87
2022/03/07 01:09:48;;;;;;;13.10;8.23;;;0.80;98.10;;;;;;5035441;28;20470;-86
2022/03/07 01:12:14;;;;;;;15.63;8.03;;;0.80;98.20;;;;;;5033396;28;20197;-86
2022/03/07 01:14:39;;;;;;;10.80;7.57;;;0.70;98.20;;;;;;5039619;28;20184;-86
2022/03/07 01:17:05;;;;;;;18.13;9.73;;;0.70;98.20;;;;;;5065486;28;20184;-86
2022/03/07 01:19:31;;;;;;;15.00;7.73;;;0.60;97.90;;;;;;5040176;28;20243;-87
2022/03/07 01:21:57;;;;;;;15.20;7.97;;;;;;;;;;5053190;28;20460;-87
2022/03/07 01:24:23;;;;;;;12.05;7.47;;;0.50;97.70;;;;;;5050329;28;20180;-88
2022/03/07 01:26:48;;;;;;;12.73;8.13;;;0.40;97.90;;;;;;5053792;28;20197;-86
2022/03/07 01:29:14;;;;;;;10.70;7.30;;;0.50;97.60;;;;;;5035342;28;20181;-86
2022/03/07 01:31:39;;;;;;;12.03;7.80;;;0.30;97.50;;;;;;5050501;28;20209;-88
2022/03/07 01:34:05;;;;;;;12.97;8.90;;;0.30;97.60;;;;;;5033056;28;20212;-87
2022/03/07 01:36:30;;;;;;;11.70;7.90;;;0.30;97.10;;;;;;5035457;28;20274;-86
2022/03/07 01:38:56;;;;;;;12.43;8.20;;;0.20;96.70;;;;;;5035204;28;20214;-86
2022/03/07 01:41:22;;;;;;;13.97;7.70;;;;;;;;;;5034903;28;20186;-87
2022/03/07 01:43:47;;;;;;;13.93;7.77;;;0.10;96.40;;;;;;5045163;28;20173;-86
2022/03/07 01:46:13;;;;;;;10.10;7.70;;;0.00;96.60;;;;;;5028164;28;20607;-88
2022/03/07 01:48:39;;;;;;;11.57;8.00;;;;;;;;;;5026521;28;20192;-84
2022/03/07 01:51:07;;;;;;;11.13;7.70;;;-0.10;96.30;;;;;;5029609;28;20208;-84
2022/03/07 01:53:32;;;;;;;12.57;8.05;;;-0.20;96.50;;;;;;5031946;28;20189;-86
2022/03/07 01:55:58;;;;;;;13.23;7.80;;;-0.20;96.70;;;;;;5029068;28;20205;-86
2022/03/07 01:58:24;;;;;;;14.10;8.40;;;-0.30;96.60;;;;;;5027336;28;20181;-87
2022/03/07 02:00:51;;;;;;;13.40;8.27;;;-0.30;96.50;;;;;;5042157;28;20202;-88
2022/03/07 02:03:17;;;;;;;14.38;8.80;;;-0.40;96.50;;;;;;5021811;28;20186;-88
2022/03/07 02:05:46;;;;;;;14.53;8.80;;;-0.50;96.30;;;;;;5038493;28;20620;-85
2022/03/07 02:08:12;;;;;;;10.75;7.85;;;-0.50;96.40;;;;;;5032199;28;20204;-87
2022/03/07 02:10:39;;;;;;;12.37;8.20;;;-0.60;96.10;;;;;;5035782;28;20537;-86
2022/03/07 02:13:12;;;;;;;14.80;9.05;;;-0.60;96.40;;;;;;5044910;28;20189;-86
2022/03/07 02:15:37;;;;;;;14.93;8.60;;;-0.70;96.40;;;;;;5049416;28;20334;-85
2022/03/07 02:18:03;;;;;;;12.00;7.87;;;-0.70;96.40;;;;;;5034166;28;20224;-85
2022/03/07 02:20:28;;;;;;;13.00;8.00;;;-0.90;96.60;;;;;;5026373;28;20185;-85
2022/03/07 02:22:54;;;;;;;14.27;8.07;;;-0.90;96.90;;;;;;5030319;28;20176;-85
2022/03/07 02:25:19;;;;;;;11.90;7.50;;;-0.90;96.90;;;;;;5048321;28;20208;-85
2022/03/07 02:27:45;;;;;;;15.17;7.80;;;-1.00;96.90;;;;;;5049458;28;20188;-86
2022/03/07 02:30:11;;;;;;;10.93;6.77;;;-1.10;97.10;;;;;;5037867;28;20183;-86
2022/03/07 02:32:37;;;;;;;12.47;7.70;;;-1.20;97.30;;;;;;5050370;28;20204;-86
2022/03/07 02:35:03;;;;;;;12.87;7.90;;;-1.20;97.60;;;;;;5030087;28;20553;-88
2022/03/07 02:37:28;;;;;;;12.50;8.13;;;-1.30;97.60;;;;;;5051587;28;20164;-87
2022/03/07 02:39:54;;;;;;;14.50;9.70;;;-1.40;97.60;;;;;;5031533;28;20177;-86
2022/03/07 02:42:19;;;;;;;13.60;8.60;;;-1.50;97.90;;;;;;5049008;28;20671;-88
2022/03/07 02:44:45;;;;;;;15.13;8.93;;;-1.60;98.10;;;;;;5037363;28;20177;-85
2022/03/07 02:47:14;;;;;;;14.63;9.37;;;-1.70;98.40;;;;;;5040034;28;20187;-87
2022/03/07 02:49:40;;;;;;;13.15;8.30;;;-1.70;98.50;;;;;;5050574;28;20185;-87
2022/03/07 02:52:07;;;;;;;10.85;8.82;;;-1.80;98.80;;;;;;5041078;28;20197;-87
2022/03/07 02:54:33;;;;;;;13.10;8.63;;;-1.80;99.20;;;;;;5036582;28;20180;-86
2022/03/07 02:56:58;;;;;;;11.47;8.13;;;-1.70;99.10;;;;;;5036621;28;20263;-84
2022/03/07 02:59:24;;;;;;;10.90;8.10;;;-1.70;98.90;;;;;;5048295;28;20174;-85
2022/03/07 03:01:49;;;;;;;13.17;8.37;;;-1.70;98.70;;;;;;5035377;28;20225;-87
2022/03/07 03:04:15;;;;;;;18.63;8.73;;;-1.70;99.20;;;;;;5037424;28;20189;-86
2022/03/07 03:06:41;;;;;;;12.27;7.57;;;-1.70;99.90;;;;;;5052818;28;20573;-83
2022/03/07 03:09:08;;;;;;;15.23;8.27;;;-1.70;99.90;;;;;;5039215;28;20185;-86
2022/03/07 03:11:33;;;;;;;9.43;7.25;;;-1.80;99.90;;;;;;5053395;28;20201;-86
2022/03/07 03:13:59;;;;;;;11.43;8.30;;;-1.90;99.90;;;;;;5048541;28;20194;-87
2022/03/07 03:16:25;;;;;;;14.87;8.10;;;-1.90;99.90;;;;;;5047649;28;20197;-86
2022/03/07 03:18:50;;;;;;;9.33;7.10;;;-1.90;99.90;;;;;;5034906;28;20442;-86
2022/03/07 03:21:18;;;;;;;10.50;6.87;;;;;;;;;;5033273;28;20204;-86
2022/03/07 03:23:44;;;;;;;16.23;7.65;;;-2.00;99.90;;;;;;5029798;28;20189;-87
2022/03/07 03:26:10;;;;;;;10.10;7.20;;;-1.90;99.90;;;;;;5047932;28;20177;-86
2022/03/07 03:28:35;;;;;;;11.73;7.57;;;-2.20;99.90;;;;;;5035692;28;20259;-88
2022/03/07 03:31:01;;;;;;;12.20;7.40;;;;;;;;;;5034150;28;20822;-88
2022/03/07 03:33:27;;;;;;;11.35;7.00;;;-2.00;99.90;;;;;;5033517;28;20196;-86
2022/03/07 03:35:52;;;;;;;8.97;6.00;;;-2.00;99.90;;;;;;5032454;28;20221;-88
2022/03/07 03:38:19;;;;;;;11.37;7.70;;;-2.00;99.90;;;;;;5037692;28;20300;-85
2022/03/07 03:40:44;;;;;;;10.95;7.30;;;-2.10;99.90;;;;;;5037033;28;20185;-85
2022/03/07 03:43:10;;;;;;;10.07;6.37;;;-2.10;99.90;;;;;;5033891;28;20523;-86
2022/03/07 03:45:36;;;;;;;14.77;7.17;;;-2.00;99.90;;;;;;5035681;28;20178;-87
2022/03/07 03:48:01;;;;;;;9.53;6.93;;;-2.00;99.90;;;;;;5037532;28;20193;-86
2022/03/07 03:50:27;;;;;;;13.50;7.50;;;-1.10;99.90;;;;;;5031535;28;20169;-85
2022/03/07 03:52:52;;;;;;;12.07;7.50;;;-2.00;99.90;;;;;;5031764;28;20217;-87
2022/03/07 03:55:19;;;;;;;8.83;6.27;;;-2.00;99.90;;;;;;5033077;28;20208;-87
2022/03/07 03:57:45;;;;;;;12.10;6.90;;;-2.00;99.90;;;;;;5046466;28;20184;-87
2022/03/07 04:00:18;;;;;;;9.70;5.87;;;-2.00;99.90;;;;;;5046106;28;20177;-88
2022/03/07 04:02:44;;;;;;;10.93;6.50;;;;;;;;;;5067725;28;20452;-88
2022/03/07 04:05:15;;;;;;;13.13;7.20;;;-2.00;99.90;;;;;;5029470;28;20258;-90
2022/03/07 04:07:41;;;;;;;16.00;8.10;;;-2.50;99.90;;;;;;5032942;28;20181;-89
2022/03/07 04:10:08;;;;;;;7.72;5.60;;;-2.10;99.90;;;;;;5034521;28;20272;-87
2022/03/07 04:12:33;;;;;;;12.95;5.63;;;-2.00;99.90;;;;;;5032922;28;20895;-86
2022/03/07 04:14:59;;;;;;;9.87;7.53;;;-2.00;99.90;;;;;;5031966;28;20209;-88
2022/03/07 04:17:25;;;;;;;15.83;9.93;;;-2.10;99.90;;;;;;5034516;28;20668;-87
2022/03/07 04:19:50;;;;;;;32.00;16.90;;;-2.20;99.90;;;;;;5048728;28;20180;-86
2022/03/07 04:22:16;;;;;;;13.37;9.37;;;-2.20;99.90;;;;;;5032504;28;20270;-86
2022/03/07 04:24:42;;;;;;;15.10;8.27;;;;;;;;;;5041895;28;20173;-87
2022/03/07 04:27:08;;;;;;;12.23;8.43;;;;;;;;;;5060760;28;20184;-87
2022/03/07 04:29:34;;;;;;;15.23;10.60;;;-2.30;99.90;;;;;;5039219;28;20262;-86
2022/03/07 04:32:00;;;;;;;8.88;6.45;;;-2.30;99.90;;;;;;5050759;28;20208;-87
2022/03/07 04:34:26;;;;;;;10.35;7.32;;;-2.30;99.90;;;;;;5070301;28;20177;-87
2022/03/07 04:36:52;;;;;;;11.48;6.82;;;-2.30;99.90;;;;;;5040178;28;20200;-89
2022/03/07 04:39:18;;;;;;;7.57;5.53;;;-2.30;99.90;;;;;;5040082;28;20189;-89
2022/03/07 04:41:44;;;;;;;10.47;6.33;;;-2.30;99.90;;;;;;5043836;28;20228;-88
2022/03/07 04:44:11;;;;;;;8.38;6.30;;;-2.30;99.90;;;;;;5042213;28;20173;-88
2022/03/07 04:46:37;;;;;;;9.38;5.95;;;;;;;;;;5043581;28;20181;-90
2022/03/07 04:49:02;;;;;;;8.35;5.75;;;-2.40;99.90;;;;;;5040419;28;20195;-87
2022/03/07 04:51:28;;;;;;;7.10;6.20;;;-2.30;99.90;;;;;;5036028;28;20204;-89
2022/03/07 04:53:54;;;;;;;9.03;5.47;;;-2.20;99.90;;;;;;5043047;28;20185;-89
2022/03/07 04:56:20;;;;;;;9.73;5.37;;;;;;;;;;5043243;28;20213;-87
2022/03/07 04:58:46;;;;;;;11.02;6.90;;;;;;;;;;5042042;28;20191;-86
2022/03/07 05:01:13;;;;;;;16.63;5.50;;;-2.30;99.90;;;;;;5052155;28;20193;-88
2022/03/07 05:03:39;;;;;;;9.63;4.85;;;-2.20;99.90;;;;;;5034027;28;20192;-87
2022/03/07 05:06:05;;;;;;;8.83;6.33;;;-2.30;99.90;;;;;;5040009;28;20653;-86
2022/03/07 05:08:30;;;;;;;6.43;4.70;;;-2.30;99.90;;;;;;5048954;28;20188;-85
2022/03/07 05:10:56;;;;;;;12.10;5.77;;;-2.30;99.90;;;;;;5050479;28;20487;-87
2022/03/07 05:13:21;;;;;;;9.67;6.50;;;-2.30;99.90;;;;;;5033689;28;20546;-87
2022/03/07 05:15:47;;;;;;;9.03;5.20;;;-2.30;99.90;;;;;;5042054;28;20209;-86
2022/03/07 05:18:14;;;;;;;14.63;5.33;;;-2.30;99.90;;;;;;5053777;28;20185;-87
2022/03/07 05:20:40;;;;;;;8.77;5.95;;;-2.30;99.90;;;;;;5039528;28;20178;-87
2022/03/07 05:23:06;;;;;;;8.10;5.43;;;;;;;;;;5034550;28;20249;-88
2022/03/07 05:25:31;;;;;;;9.23;5.97;;;-2.20;99.90;;;;;;5031739;28;20186;-88
2022/03/07 05:27:57;;;;;;;14.60;6.87;;;-2.20;99.90;;;;;;5048987;28;20443;-86
2022/03/07 05:30:23;;;;;;;10.70;6.00;;;-2.20;99.90;;;;;;5052535;28;20192;-88
2022/03/07 05:32:56;;;;;;;11.90;6.85;;;-2.20;99.90;;;;;;5037695;28;20200;-88
2022/03/07 05:35:22;;;;;;;9.60;6.22;;;-2.20;99.90;;;;;;5048401;28;20198;-87
2022/03/07 05:37:48;;;;;;;16.80;6.75;;;-2.30;99.90;;;;;;5035405;28;21091;-86
2022/03/07 05:40:15;;;;;;;8.73;5.63;;;-2.30;99.90;;;;;;5036472;28;20166;-86
2022/03/07 05:42:41;;;;;;;8.57;5.00;;;-2.30;99.90;;;;;;5036915;28;20447;-88
2022/03/07 05:45:09;;;;;;;16.00;7.03;;;-2.20;99.90;;;;;;5033984;28;20195;-84
2022/03/07 05:47:35;;;;;;;9.27;5.70;;;-2.20;99.90;;;;;;5028798;28;20192;-85
2022/03/07 05:50:01;;;;;;;8.40;5.40;;;-2.20;99.90;;;;;;5026717;28;20568;-85
2022/03/07 05:52:30;;;;;;;12.70;6.87;;;-2.10;99.90;;;;;;5034241;28;20212;-84
2022/03/07 05:54:55;;;;;;;12.75;7.85;;;-2.10;99.90;;;;;;5031958;28;20746;-83
2022/03/07 05:57:21;;;;;;;13.47;7.60;;;-2.00;99.90;;;;;;5029328;28;20185;-84
2022/03/07 05:59:46;;;;;;;15.17;7.77;;;-2.00;99.90;;;;;;5030851;28;20185;-83
2022/03/07 06:02:12;;;;;;;14.97;7.40;;;-1.90;99.90;;;;;;5034836;28;20208;-83
2022/03/07 06:04:38;;;;;;;11.53;7.50;;;-1.90;99.90;;;;;;5029175;28;20198;-83
2022/03/07 06:07:03;;;;;;;11.07;7.50;;;-2.00;99.90;;;;;;5034759;28;20260;-84
2022/03/07 06:09:29;;;;;;;9.53;6.40;;;-1.90;99.90;;;;;;5046312;28;20244;-85
2022/03/07 06:11:54;;;;;;;10.97;6.60;;;-1.90;99.90;;;;;;5046291;28;20478;-83
2022/03/07 06:14:20;;;;;;;10.70;5.57;;;-1.80;99.90;;;;;;5061601;28;20564;-83
2022/03/07 06:16:46;;;;;;;8.07;5.37;;;-2.00;99.90;;;;;;5030346;28;20582;-83
2022/03/07 06:19:11;;;;;;;10.50;6.40;;;-1.90;99.90;;;;;;5035489;28;20267;-83
2022/03/07 06:21:37;;;;;;;10.93;6.70;;;-1.90;99.90;;;;;;5051829;28;20208;-83
2022/03/07 06:24:02;;;;;;;20.90;6.90;;;-1.70;99.90;;;;;;5048210;28;20192;-82
2022/03/07 06:26:28;;;;;;;10.20;6.40;;;-1.30;99.90;;;;;;5049732;28;20204;-83
2022/03/07 06:28:54;;;;;;;9.50;5.73;;;-0.60;99.90;;;;;;5030835;28;20185;-83
2022/03/07 06:31:20;;;;;;;9.80;6.87;;;-0.10;99.90;;;;;;5051720;28;20198;-82
2022/03/07 06:33:45;;;;;;;11.83;5.77;;;0.40;99.90;;;;;;5032782;28;20173;-83
2022/03/07 06:36:11;;;;;;;10.87;5.23;;;1.40;99.90;;;;;;5030705;28;20502;-82
2022/03/07 06:38:39;;;;;;;7.83;5.30;;;2.10;99.90;;;;;;5037374;28;20216;-82
2022/03/07 06:41:05;;;;;;;11.38;5.57;;;3.10;99.90;;;;;;5047502;28;20192;-83
2022/03/07 06:43:30;;;;;;;8.17;6.20;;;4.30;99.90;;;;;;5030607;28;20244;-83
2022/03/07 06:45:56;;;;;;;10.30;5.80;;;5.50;99.90;;;;;;5029510;28;20443;-82
2022/03/07 06:48:21;;;;;;;10.90;7.30;;;6.40;99.90;;;;;;5044437;28;20187;-84
2022/03/07 06:50:47;;;;;;;10.10;6.53;;;6.90;94.20;;;;;;5032356;28;20278;-84
2022/03/07 06:53:13;;;;;;;11.10;6.93;;;7.80;94.00;;;;;;5041885;28;20281;-84
2022/03/07 06:55:38;;;;;;;8.60;6.70;;;8.50;86.60;;;;;;5046298;28;20736;-84
2022/03/07 06:58:04;;;;;;;9.00;5.60;;;8.90;86.20;;;;;;5033720;28;20178;-83
2022/03/07 07:00:30;;;;;;;8.47;6.93;;;10.10;73.30;;;;;;5046257;28;20184;-83
2022/03/07 07:02:57;;;;;;;7.87;6.33;;;10.10;74.00;;;;;;5031480;28;20173;-81
2022/03/07 07:05:23;;;;;;;8.38;5.70;;;10.10;71.10;;;;;;5030398;28;20212;-81
2022/03/07 07:07:49;;;;;;;10.10;6.45;;;10.00;69.70;;;;;;5025729;28;20187;-81
2022/03/07 07:10:18;;;;;;;7.30;6.32;;;10.50;68.80;;;;;;5043826;28;20190;-81
2022/03/07 07:12:45;;;;;;;13.88;6.85;;;10.20;64.20;;;;;;5043834;28;20201;-82
2022/03/07 07:15:11;;;;;;;11.27;6.60;;;9.10;63.20;;;;;;5044165;28;20292;-82
2022/03/07 07:17:36;;;;;;;11.98;7.80;;;7.10;64.70;;;;;;5045265;28;20714;-83
2022/03/07 07:20:04;;;;;;;23.40;11.73;;;7.00;65.50;;;;;;5045030;28;20181;-83
2022/03/07 07:22:30;;;;;;;16.30;9.07;;;6.10;67.60;;;;;;5044287;28;20200;-84
2022/03/07 07:24:56;;;;;;;20.48;11.73;;;5.20;69.60;;;;;;5032366;28;20316;-83
2022/03/07 07:27:21;;;;;;;18.43;9.50;;;4.80;72.30;;;;;;5032714;28;20193;-83
2022/03/07 07:29:47;;;;;;;16.30;8.97;;;4.60;73.80;;;;;;5047883;28;20189;-84
2022/03/07 07:32:13;;;;;;;10.87;6.93;;;4.40;75.30;;;;;;5029968;28;20201;-84
2022/03/07 07:34:38;;;;;;;17.33;9.60;;;3.80;76.20;;;;;;5023991;28;20437;-83
2022/03/07 07:37:04;;;;;;;76.83;34.53;;;3.50;78.80;;;;;;5028414;28;20255;-83
2022/03/07 07:39:29;;;;;;;16.17;9.27;;;3.00;80.70;;;;;;5027321;28;20280;-83
2022/03/07 07:41:56;;;;;;;12.80;8.90;;;3.00;82.60;;;;;;5031714;28;20569;-83
2022/03/07 07:44:21;;;;;;;16.67;10.15;;;2.80;83.30;;;;;;5046235;28;20243;-82
2022/03/07 07:46:47;;;;;;;16.40;8.40;;;2.70;84.80;;;;;;5028477;28;20185;-83
2022/03/07 07:49:13;;;;;;;11.30;7.10;;;2.70;86.50;;;;;;5045249;28;20261;-83
2022/03/07 07:51:39;;;;;;;14.15;9.10;;;3.00;86.50;;;;;;5045732;28;20209;-83
2022/03/07 07:54:05;;;;;;;13.77;8.00;;;3.60;86.70;;;;;;5046794;28;20184;-84
2022/03/07 07:56:31;;;;;;;12.50;7.72;;;3.60;84.60;;;;;;5047070;28;20950;-83
2022/03/07 07:58:56;;;;;;;13.87;9.37;;;3.80;86.20;;;;;;5023874;28;20215;-83
2022/03/07 08:01:23;;;;;;;17.17;9.50;;;3.90;83.70;;;;;;5049112;28;20209;-83
2022/03/07 08:03:49;;;;;;;12.95;8.30;;;4.40;83.30;;;;;;5032511;28;20182;-82
2022/03/07 08:06:14;;;;;;;15.73;8.73;;;4.10;82.80;;;;;;5026798;28;20932;-82
2022/03/07 08:08:40;;;;;;;13.97;8.57;;;5.00;83.50;;;;;;5047147;28;20244;-82
2022/03/07 08:11:05;;;;;;;13.57;7.50;;;5.60;80.60;;;;;;5046581;28;20711;-83
2022/03/07 08:13:31;;;;;;;11.80;8.13;;;5.90;78.50;;;;;;5045966;28;20245;-83
2022/03/07 08:15:56;;;;;;;12.97;8.80;;;6.20;77.60;;;;;;5047498;28;20222;-83
2022/03/07 08:18:22;;;;;;;11.67;7.60;;;6.60;76.10;;;;;;5024144;28;20181;-82
2022/03/07 08:20:48;;;;;;;10.53;8.07;;;6.50;74.30;;;;;;5047079;28;20213;-83
2022/03/07 08:23:13;;;;;;;17.07;9.60;;;6.50;74.80;;;;;;5033017;28;20283;-82
2022/03/07 08:25:39;;;;;;;15.00;9.70;;;6.60;75.80;;;;;;5028390;28;20653;-83
2022/03/07 08:28:05;;;;;;;13.23;7.43;;;6.60;74.60;;;;;;5046143;28;20358;-83
2022/03/07 08:30:30;;;;;;;11.63;8.43;;;5.90;72.20;;;;;;5031703;28;20217;-82
2022/03/07 08:32:56;;;;;;;14.97;8.00;;;5.90;73.00;;;;;;5035353;28;20656;-82
2022/03/07 08:35:22;;;;;;;18.17;10.17;;;5.60;74.00;;;;;;5027349;28;20244;-82
2022/03/07 08:37:50;;;;;;;14.50;8.70;;;6.00;74.30;;;;;;5034789;28;20432;-82
2022/03/07 08:40:18;;;;;;;12.13;8.15;;;6.10;74.00;;;;;;5037294;28;20523;-83
2022/03/07 08:42:44;;;;;;;12.85;7.00;;;6.10;73.60;;;;;;5029791;28;20198;-81
2022/03/07 08:45:11;;;;;;;14.52;9.85;;;6.30;73.80;;;;;;5047453;28;20185;-82
2022/03/07 08:47:38;;;;;;;12.52;7.78;;;6.00;72.70;;;;;;5037425;28;20267;-82
2022/03/07 08:50:05;;;;;;;10.65;8.38;;;6.00;72.30;;;;;;5033288;28;20196;-84
2022/03/07 08:52:31;;;;;;;14.52;9.05;;;6.00;73.50;;;;;;5044682;28;20217;-82
2022/03/07 08:54:56;;;;;;;11.60;8.20;;;6.70;72.50;;;;;;5051404;28;20197;-81
2022/03/07 08:57:22;;;;;;;13.30;7.87;;;7.00;72.00;;;;;;5051338;28;20181;-83
2022/03/07 08:59:47;;;;;;;12.57;8.73;;;7.90;70.90;;;;;;5049667;28;20178;-84
2022/03/07 09:02:13;;;;;;;11.97;8.33;;;7.30;64.40;;;;;;5052938;28;20201;-81
2022/03/07 09:04:42;;;;;;;20.10;8.67;;;6.80;67.30;;;;;;5028325;28;20201;-82
2022/03/07 09:07:08;;;;;;;17.52;8.85;;;7.30;68.90;;;;;;5043792;28;20216;-82
2022/03/07 09:09:33;;;;;;;14.53;9.40;;;7.00;64.90;;;;;;5028554;28;20192;-83
2022/03/07 09:12:00;;;;;;;11.53;7.83;;;7.10;67.10;;;;;;5036105;28;20455;-83
2022/03/07 09:14:26;;;;;;;13.20;8.13;;;6.60;63.20;;;;;;5054331;28;20525;-84
2022/03/07 09:16:51;;;;;;;11.80;7.80;;;6.40;62.40;;;;;;5036354;28;20239;-82
2022/03/07 09:19:17;;;;;;;11.07;8.37;;;6.50;62.40;;;;;;5031406;28;20189;-84
2022/03/07 09:21:43;;;;;;;13.10;8.63;;;6.30;60.90;;;;;;5025716;28;20193;-82
2022/03/07 09:24:08;;;;;;;13.27;7.67;;;6.30;61.30;;;;;;5037041;28;20173;-83
2022/03/07 09:26:34;;;;;;;13.70;8.90;;;6.30;61.40;;;;;;5055248;28;20184;-83
2022/03/07 09:28:59;;;;;;;13.60;7.17;;;6.30;62.00;;;;;;5052447;28;20172;-83
2022/03/07 09:31:25;;;;;;;10.57;8.20;;;6.00;61.40;;;;;;5056007;28;20207;-82
2022/03/07 09:33:51;;;;;;;15.43;8.83;;;6.00;62.50;;;;;;5053970;28;20529;-84
2022/03/07 09:36:16;;;;;;;14.30;10.20;;;5.40;62.90;;;;;;5059860;28;20201;-82
2022/03/07 09:38:43;;;;;;;11.27;8.40;;;5.50;64.60;;;;;;5037633;28;20201;-81
2022/03/07 09:41:09;;;;;;;13.18;8.98;;;5.20;65.00;;;;;;5038197;28;20193;-83
2022/03/07 09:43:35;;;;;;;14.45;9.60;;;4.70;66.50;;;;;;5055685;28;20201;-83
2022/03/07 09:46:01;;;;;;;12.18;9.60;;;4.10;67.20;;;;;;5037857;28;20260;-82
2022/03/07 09:48:27;;;;;;;19.60;11.93;;;4.70;69.50;;;;;;5055655;28;20212;-84
2022/03/07 09:50:52;;;;;;;14.67;9.50;;;5.00;68.70;;;;;;5052185;28;20204;-84
2022/03/07 09:53:19;;;;;;;14.07;8.77;;;5.30;67.00;;;;;;5038148;28;20177;-82
2022/03/07 09:55:45;;;;;;;11.73;9.05;;;6.00;68.30;;;;;;5054976;28;20467;-81
2022/03/07 09:58:11;;;;;;;13.27;8.77;;;6.60;63.70;;;;;;5054707;28;20182;-81
2022/03/07 10:00:41;;;;;;;11.73;8.77;;;5.40;62.50;;;;;;5055021;28;20276;-81
2022/03/07 10:03:09;;;;;;;12.32;9.02;;;5.40;63.40;;;;;;5055723;28;20169;-81
2022/03/07 10:05:41;;;;;;;14.68;8.65;;;4.90;63.20;;;;;;5029287;28;20625;-82
2022/03/07 10:08:08;;;;;;;16.35;9.10;;;4.30;64.80;;;;;;5037226;28;20291;-82
2022/03/07 10:10:42;;;;;;;11.00;7.65;;;4.20;66.60;;;;;;5053513;28;20189;-81
2022/03/07 10:13:10;;;;;;;15.23;8.13;;;4.20;67.30;;;;;;5037473;28;20656;-82
2022/03/07 10:15:38;;;;;;;14.13;9.35;;;4.40;66.30;;;;;;5037016;28;20672;-84
2022/03/07 10:18:04;;;;;;;12.65;8.85;;;4.30;67.00;;;;;;5037812;28;20270;-82
2022/03/07 10:20:30;;;;;;;13.60;8.13;;;4.20;65.90;;;;;;5036178;28;20200;-82
2022/03/07 10:22:58;;;;;;;12.32;9.25;;;4.10;66.50;;;;;;5055885;28;20613;-84
2022/03/07 10:25:27;;;;;;;12.70;8.75;;;4.30;66.50;;;;;;5038580;28;20249;-81
2022/03/07 10:27:54;;;;;;;14.43;8.35;;;3.90;65.50;;;;;;5055654;28;20185;-81
2022/03/07 10:30:23;;;;;;;17.92;10.52;;;3.80;66.20;;;;;;5054752;28;20169;-82
2022/03/07 10:33:07;;;;;;;14.68;8.65;;;3.90;67.00;;;;;;5036287;28;20196;-83
2022/03/07 10:35:38;;;;;;;11.10;9.32;;;4.00;65.80;;;;;;5036929;28;20192;-82
2022/03/07 10:38:06;;;;;;;12.57;7.97;;;4.00;65.00;;;;;;5055788;28;20150;-82
2022/03/07 10:40:34;;;;;;;14.88;9.50;;;3.50;62.30;;;;;;5054857;28;20170;-83
2022/03/07 10:43:00;;;;;;;17.60;10.70;;;3.50;63.00;;;;;;5036693;28;20546;-83
2022/03/07 10:45:28;;;;;;;14.57;10.60;;;3.40;64.40;;;;;;5039911;28;20185;-84
2022/03/07 10:47:59;;;;;;;21.98;10.85;;;3.20;65.20;;;;;;5040022;28;20243;-82
2022/03/07 10:50:27;;;;;;;17.17;11.52;;;3.10;64.90;;;;;;5026442;28;20721;-83
2022/03/07 10:52:58;;;;;;;15.95;10.02;;;3.40;65.70;;;;;;5036955;28;20240;-81
2022/03/07 10:55:26;;;;;;;14.55;8.73;;;4.00;66.20;;;;;;5021284;28;20204;-81
2022/03/07 10:57:52;;;;;;;11.02;8.40;;;4.10;63.00;;;;;;5040337;28;20177;-82
2022/03/07 11:00:18;;;;;;;11.25;8.68;;;4.10;64.10;;;;;;5040445;28;20169;-81
2022/03/07 11:02:45;;;;;;;13.25;9.40;;;4.30;63.90;;;;;;5068605;28;20681;-80
2022/03/07 11:05:13;;;;;;;19.00;11.70;;;4.20;64.00;;;;;;5040668;28;20677;-81
2022/03/07 11:07:41;;;;;;;19.45;11.50;;;4.10;62.80;;;;;;5040869;28;20649;-81
2022/03/07 11:10:10;;;;;;;18.23;11.45;;;4.00;62.20;;;;;;5040481;28;20193;-81
2022/03/07 11:12:36;;;;;;;16.50;12.18;;;4.10;63.00;;;;;;5058506;28;20616;-81
2022/03/07 11:15:08;;;;;;;18.70;11.43;;;4.10;62.80;;;;;;5045952;28;20173;-82
2022/03/07 11:17:39;;;;;;;14.80;10.23;;;4.10;61.90;;;;;;5039361;28;20634;-82
2022/03/07 11:20:06;;;;;;;14.45;10.02;;;4.30;63.70;;;;;;5058658;28;20165;-82
2022/03/07 11:22:32;;;;;;;20.92;10.65;;;4.60;61.40;;;;;;5058715;28;20185;-83
2022/03/07 11:24:59;;;;;;;18.00;10.80;;;4.50;61.60;;;;;;5039494;28;20768;-82
2022/03/07 11:27:24;;;;;;;15.15;9.32;;;4.40;61.30;;;;;;5057774;28;20411;-80
2022/03/07 11:29:50;;;;;;;14.80;9.23;;;4.50;62.00;;;;;;5038683;28;20596;-81
2022/03/07 11:32:18;;;;;;;17.23;10.30;;;4.50;61.20;;;;;;5056647;28;20623;-84
2022/03/07 11:34:59;;;;;;;17.35;9.77;;;4.40;61.00;;;;;;5037122;28;20169;-83
2022/03/07 11:37:30;;;;;;;12.70;8.07;;;4.40;59.80;;;;;;5049341;28;20185;-80
2022/03/07 11:39:58;;;;;;;15.57;9.65;;;4.40;61.50;;;;;;5037481;28;20166;-84
2022/03/07 11:42:33;;;;;;;16.30;10.18;;;4.30;61.90;;;;;;5032159;28;20193;-81
2022/03/07 11:45:07;;;;;;;16.05;9.05;;;4.40;62.40;;;;;;5054428;28;20322;-80
2022/03/07 11:47:38;;;;;;;14.75;9.35;;;4.50;61.60;;;;;;5055937;28;20782;-81
2022/03/07 11:50:04;;;;;;;16.20;9.70;;;4.20;59.60;;;;;;5057246;28;20188;-82
2022/03/07 11:52:30;;;;;;;12.82;9.98;;;4.30;62.50;;;;;;5031454;28;20371;-84
2022/03/07 11:54:59;;;;;;;16.53;10.03;;;4.70;60.30;;;;;;5026372;28;20253;-86
2022/03/07 11:57:31;;;;;;;14.90;10.57;;;4.70;61.00;;;;;;5017849;28;20177;-85
2022/03/07 11:59:56;;;;;;;18.55;9.73;;;4.80;60.50;;;;;;5021586;28;20181;-84
2022/03/07 12:02:22;;;;;;;15.00;9.63;;;4.80;60.80;;;;;;5023538;28;20343;-85
2022/03/07 12:04:47;;;;;;;14.97;9.73;;;4.60;61.10;;;;;;5025011;28;20217;-88
2022/03/07 12:07:25;;;;;;;13.30;9.17;;;4.80;61.00;;;;;;5021572;28;20189;-85
2022/03/07 12:09:51;;;;;;;13.35;9.85;;;4.80;60.50;;;;;;5019844;28;20192;-87
2022/03/07 12:12:20;;;;;;;15.03;10.13;;;4.90;60.00;;;;;;5025431;28;20199;-88
2022/03/07 12:14:47;;;;;;;17.95;9.02;;;5.00;59.50;;;;;;5017457;28;20712;-88
2022/03/07 12:17:24;;;;;;;16.08;9.88;;;5.10;62.10;;;;;;5037417;28;20225;-87
2022/03/07 12:19:55;;;;;;;19.88;9.95;;;5.20;60.70;;;;;;5023289;28;21908;-86
2022/03/07 12:22:24;;;;;;;13.77;9.57;;;5.30;58.60;;;;;;5038957;28;20201;-82
2022/03/07 12:24:49;;;;;;;38.97;10.30;;;5.30;59.20;;;;;;5022382;28;20180;-85
2022/03/07 12:27:15;;;;;;;12.73;9.63;;;5.20;58.60;;;;;;5025766;28;20661;-86
2022/03/07 12:29:43;;;;;;;17.60;11.10;;;4.90;57.60;;;;;;5020209;28;20189;-88
2022/03/07 12:32:09;;;;;;;9.15;7.25;;;4.70;58.10;;;;;;5022398;28;20209;-86
2022/03/07 12:34:39;;;;;;;30.67;13.70;;;5.00;59.20;;;;;;5021221;28;20735;-86
2022/03/07 12:37:18;;;;;;;20.92;11.57;;;5.20;58.40;;;;;;5017764;28;20259;-87
2022/03/07 12:39:53;;;;;;;15.95;10.00;;;5.30;58.40;;;;;;5032617;28;20232;-88
2022/03/07 12:42:24;;;;;;;11.45;9.50;;;5.50;57.50;;;;;;5024825;28;20192;-84
2022/03/07 12:44:50;;;;;;;15.70;10.95;;;5.50;57.30;;;;;;5017689;28;20180;-88